Time;durP1;ratioP1;P1;durP2;ratioP2;P2;SDS_P1;SDS_P2;PMS_P1;PMS_P2;Temp;Humidity;BMP_temperature;BMP_pressure;BME280_temperature;BME280_humidity;BME280_pressure;Samples;Min_cycle;Max_cycle;Signal;HPM_P1;HPM_P2
2022/03/10 00:03:36;;;;;;;4.88;2.53;;;17.90;26.30;20.40;94422.00;;;;10353500;28;45393;-62
2022/03/10 00:08:37;;;;;;;4.18;2.67;;;17.90;26.30;20.40;94414.00;;;;10354320;28;45361;-64
2022/03/10 00:13:38;;;;;;;5.57;2.92;;;17.90;26.30;20.40;94417.00;;;;10353401;28;45647;-62
2022/03/10 00:18:39;;;;;;;3.60;2.55;;;17.90;26.30;20.40;94439.00;;;;10352856;28;45376;-62
2022/03/10 00:23:39;;;;;;;3.95;2.55;;;17.90;26.30;20.40;94438.00;;;;10352880;28;47815;-63
2022/03/10 00:28:40;;;;;;;3.33;2.45;;;17.90;26.30;20.30;94438.00;;;;10353681;28;45569;-63
2022/03/10 00:33:40;;;;;;;4.10;2.55;;;17.90;26.20;20.40;94438.00;;;;10352497;28;47062;-62
2022/03/10 00:38:41;;;;;;;4.18;2.67;;;17.90;26.20;20.30;94445.00;;;;10351752;28;47075;-62
2022/03/10 00:43:42;;;;;;;3.75;2.63;;;17.90;26.20;20.30;94440.00;;;;10353867;28;46380;-63
2022/03/10 00:48:43;;;;;;;3.80;2.47;;;17.90;26.20;20.30;94443.00;;;;10352945;28;45472;-63
2022/03/10 00:53:44;;;;;;;4.10;2.97;;;17.90;26.20;20.30;94443.00;;;;10351163;28;47115;-62
2022/03/10 00:58:45;;;;;;;3.47;2.28;;;17.90;26.10;20.30;94450.00;;;;10351475;28;45434;-62
2022/03/10 01:03:45;;;;;;;3.83;2.60;;;17.90;26.20;20.30;94450.00;;;;10351747;28;47651;-62
2022/03/10 01:08:46;;;;;;;5.60;3.03;;;17.90;26.20;20.30;94450.00;;;;10351047;28;47540;-62
2022/03/10 01:13:47;;;;;;;3.25;2.20;;;17.80;26.10;20.30;94442.00;;;;10351685;28;48641;-62
2022/03/10 01:18:47;;;;;;;4.75;2.70;;;17.80;26.10;20.30;94433.00;;;;10351022;28;47464;-62
2022/03/10 01:23:48;;;;;;;3.35;2.50;;;17.80;26.10;20.30;94454.00;;;;10351485;28;47126;-62
2022/03/10 01:28:48;;;;;;;4.05;2.70;;;17.80;26.10;20.30;94447.00;;;;10350760;28;45558;-62
2022/03/10 01:33:49;;;;;;;4.07;2.50;;;17.80;26.10;20.30;94445.00;;;;10352484;28;45374;-63
2022/03/10 01:38:50;;;;;;;5.63;2.80;;;17.80;26.00;20.30;94453.00;;;;10350750;28;48382;-62
2022/03/10 01:44:02;;;;;;;3.80;2.38;;;17.80;26.10;20.30;94451.00;;;;10352287;28;46484;-62
2022/03/10 01:49:05;;;;;;;3.65;2.80;;;17.80;26.10;20.30;94451.00;;;;10357141;28;46036;-62
2022/03/10 01:54:07;;;;;;;3.90;2.67;;;17.80;26.10;20.30;94452.00;;;;10357833;28;45322;-61
2022/03/10 01:59:09;;;;;;;3.90;2.58;;;17.80;26.00;20.30;94450.00;;;;10355221;28;45295;-61
2022/03/10 02:04:09;;;;;;;3.47;2.33;;;17.80;26.00;20.30;94424.00;;;;10352407;28;47045;-61
2022/03/10 02:19:57;;;;;;;3.35;2.30;;;17.80;26.00;20.30;94443.00;;;;10357970;28;45212;-61
2022/03/10 02:24:58;;;;;;;4.25;2.70;;;17.80;26.00;20.30;94443.00;;;;10356672;28;46362;-61
2022/03/10 02:30:01;;;;;;;3.58;2.50;;;17.80;26.00;20.30;94435.00;;;;10357184;28;45218;-61
2022/03/10 02:35:01;;;;;;;3.83;2.60;;;17.80;26.00;20.30;94433.00;;;;10356253;28;45511;-62
2022/03/10 02:40:04;;;;;;;3.35;2.47;;;17.80;25.90;20.30;94411.00;;;;10355537;28;47159;-62
2022/03/10 02:45:07;;;;;;;4.30;2.75;;;17.80;26.00;20.30;94419.00;;;;10355586;28;47219;-61
2022/03/10 02:50:09;;;;;;;5.82;2.63;;;17.80;25.90;20.30;94423.00;;;;10355290;28;45341;-61
2022/03/10 02:55:10;;;;;;;4.20;2.78;;;17.80;25.90;20.30;94439.00;;;;10356764;28;45485;-61
2022/03/10 03:00:14;;;;;;;5.05;2.85;;;17.80;25.90;20.30;94427.00;;;;10354706;28;46867;-62
2022/03/10 03:05:15;;;;;;;4.15;2.70;;;17.80;25.80;20.30;94424.00;;;;10354986;28;48048;-62
2022/03/10 03:10:16;;;;;;;4.68;2.63;;;17.80;25.80;20.30;94418.00;;;;10354640;28;45279;-61
2022/03/10 03:15:18;;;;;;;3.83;2.60;;;17.80;25.70;20.30;94421.00;;;;10354840;28;45185;-61
2022/03/10 03:20:18;;;;;;;3.58;2.53;;;17.80;25.70;20.30;94414.00;;;;10354495;28;45322;-61
2022/03/10 03:25:19;;;;;;;4.35;2.60;;;17.80;25.70;20.30;94424.00;;;;10356017;28;45281;-62
2022/03/10 03:30:20;;;;;;;4.25;2.50;;;17.80;25.70;20.30;94429.00;;;;10355246;28;45384;-61
2022/03/10 03:35:20;;;;;;;4.30;2.50;;;17.80;25.70;20.30;94422.00;;;;10355539;28;45167;-64
2022/03/10 03:40:21;;;;;;;3.72;2.45;;;17.80;25.70;20.30;94422.00;;;;10354523;28;45166;-63
2022/03/10 03:45:22;;;;;;;3.88;2.58;;;17.80;25.70;20.30;94418.00;;;;10354109;28;46646;-61
2022/03/10 03:50:23;;;;;;;3.75;2.40;;;17.80;25.70;20.20;94419.00;;;;10352818;28;47311;-61
2022/03/10 03:55:24;;;;;;;4.20;2.80;;;17.80;26.20;20.20;94425.00;;;;10354960;28;45286;-62
2022/03/10 04:00:24;;;;;;;4.82;2.85;;;17.80;25.70;20.20;94425.00;;;;10354537;28;45241;-61
2022/03/10 04:05:25;;;;;;;4.22;2.72;;;17.80;25.70;20.30;94426.00;;;;10353144;28;46001;-65
2022/03/10 04:10:26;;;;;;;3.72;2.38;;;17.80;25.60;20.20;94426.00;;;;10351705;28;45506;-61
2022/03/10 04:15:26;;;;;;;4.13;2.67;;;17.80;25.60;20.20;94419.00;;;;10368318;28;46885;-61
2022/03/10 04:20:28;;;;;;;3.72;2.35;;;17.80;25.60;20.30;94448.00;;;;10352205;28;45533;-63
2022/03/10 04:25:29;;;;;;;4.25;2.70;;;17.80;25.70;20.30;94443.00;;;;10352224;28;45496;-61
2022/03/10 04:30:32;;;;;;;3.85;2.42;;;17.80;25.60;20.20;94451.00;;;;10352346;28;47056;-62
2022/03/10 04:35:33;;;;;;;3.35;2.33;;;17.80;25.80;20.20;94439.00;;;;10352470;28;45359;-61
2022/03/10 04:40:34;;;;;;;3.80;2.78;;;17.70;25.60;20.20;94452.00;;;;10352192;28;45424;-61
2022/03/10 04:45:35;;;;;;;4.63;2.63;;;17.70;25.60;20.20;94446.00;;;;10352003;28;48017;-61
2022/03/10 04:50:35;;;;;;;3.85;2.50;;;17.80;25.70;20.20;94449.00;;;;10352916;28;45886;-61
2022/03/10 04:55:36;;;;;;;2.80;2.05;;;17.70;25.70;20.20;94425.00;;;;10351789;28;46288;-62
2022/03/10 05:00:37;;;;;;;3.83;2.65;;;17.70;25.60;20.20;94450.00;;;;10367969;28;48044;-61
2022/03/10 05:05:37;;;;;;;4.63;2.80;;;17.70;25.70;20.20;94429.00;;;;10351435;28;45320;-61
2022/03/10 05:10:38;;;;;;;4.28;2.42;;;17.70;25.60;20.20;94434.00;;;;10351432;28;46500;-61
2022/03/10 05:15:39;;;;;;;3.83;2.50;;;17.70;25.70;20.30;94446.00;;;;10352634;28;45536;-62
2022/03/10 05:20:40;;;;;;;3.58;2.45;;;17.80;25.60;20.30;94453.00;;;;10355601;28;45277;-61
2022/03/10 05:25:42;;;;;;;3.85;2.60;;;17.80;25.50;20.30;94446.00;;;;10359442;28;45445;-61
2022/03/10 05:30:45;;;;;;;3.92;2.33;;;17.90;25.50;20.30;94447.00;;;;10357852;28;46911;-61
2022/03/10 05:35:45;;;;;;;3.50;2.47;;;17.90;25.50;20.30;94440.00;;;;10357581;28;47079;-62
2022/03/10 05:40:46;;;;;;;4.00;2.67;;;17.90;25.50;20.30;94444.00;;;;10358069;28;45530;-61
2022/03/10 05:45:47;;;;;;;3.33;2.47;;;17.90;25.50;20.30;94457.00;;;;10357272;28;48542;-61
2022/03/10 05:50:47;;;;;;;3.80;2.28;;;17.90;25.50;20.30;94461.00;;;;10357357;28;46245;-61
2022/03/10 05:55:48;;;;;;;3.33;2.25;;;17.90;25.50;20.30;94458.00;;;;10357673;28;45552;-63
2022/03/10 06:00:49;;;;;;;4.75;2.42;;;17.90;25.50;20.30;94459.00;;;;10357061;28;47020;-61
2022/03/10 06:05:50;;;;;;;3.45;2.20;;;17.90;25.60;20.30;94453.00;;;;10356704;28;47477;-61
2022/03/10 06:10:50;;;;;;;3.80;2.40;;;17.80;25.50;20.30;94444.00;;;;10356681;28;45270;-61
2022/03/10 06:15:51;;;;;;;3.85;2.58;;;17.80;25.50;20.30;94449.00;;;;10356466;28;45571;-61
2022/03/10 06:20:52;;;;;;;3.47;2.50;;;17.80;25.60;20.30;94460.00;;;;10356367;28;47302;-62
2022/03/10 06:25:52;;;;;;;3.10;2.10;;;17.80;25.60;20.30;94456.00;;;;10356066;28;47273;-61
2022/03/10 06:30:53;;;;;;;3.25;2.30;;;17.80;25.60;20.30;94453.00;;;;10357061;28;45454;-64
2022/03/10 06:35:54;;;;;;;4.28;2.33;;;17.80;25.60;20.30;94464.00;;;;10356017;28;46501;-62
2022/03/10 06:40:54;;;;;;;3.72;2.25;;;17.80;25.60;20.30;94464.00;;;;10355464;28;47108;-61
2022/03/10 06:45:55;;;;;;;3.65;2.45;;;17.90;25.60;20.30;94455.00;;;;10355306;28;47279;-62
2022/03/10 06:50:56;;;;;;;3.58;2.40;;;17.90;25.60;20.30;94463.00;;;;10355344;28;47351;-62
2022/03/10 06:55:56;;;;;;;3.30;2.20;;;17.90;25.60;20.30;94449.00;;;;10356614;28;45341;-62
2022/03/10 07:00:57;;;;;;;2.97;2.00;;;17.90;25.60;20.30;94462.00;;;;10356090;28;45597;-61
2022/03/10 07:05:59;;;;;;;3.05;2.10;;;17.90;25.70;20.40;94459.00;;;;10356211;28;46102;-61
2022/03/10 07:10:59;;;;;;;3.05;2.33;;;17.90;25.70;20.40;94457.00;;;;10356336;28;45313;-61
2022/03/10 07:16:00;;;;;;;5.43;2.35;;;17.90;25.70;20.40;94455.00;;;;10354889;28;45389;-61
2022/03/10 07:21:02;;;;;;;3.60;2.03;;;17.90;25.80;20.40;94459.00;;;;10356231;28;45422;-62
2022/03/10 07:26:03;;;;;;;3.33;2.05;;;17.90;26.00;20.40;94441.00;;;;10354889;28;45222;-62
2022/03/10 07:31:03;;;;;;;3.17;2.13;;;17.90;26.00;20.40;94465.00;;;;10356235;28;45287;-61
2022/03/10 07:36:04;;;;;;;3.67;2.30;;;17.90;26.10;20.30;94458.00;;;;10355027;28;46631;-62
2022/03/10 07:41:05;;;;;;;3.10;2.08;;;17.90;26.10;20.30;94472.00;;;;10354315;28;48497;-61
2022/03/10 07:46:06;;;;;;;3.70;2.45;;;17.90;26.10;20.30;94453.00;;;;10352821;28;47221;-61
2022/03/10 07:51:07;;;;;;;3.95;2.80;;;17.90;26.00;20.40;94453.00;;;;10355002;28;46198;-60
2022/03/10 07:56:07;;;;;;;5.55;2.80;;;18.00;26.10;20.50;94437.00;;;;10355379;28;45549;-61
2022/03/10 08:01:08;;;;;;;4.78;3.08;;;18.00;26.00;20.40;94449.00;;;;10370262;28;45695;-61
2022/03/10 08:06:09;;;;;;;5.60;3.28;;;18.00;26.00;20.40;94454.00;;;;10369741;28;45531;-61
2022/03/10 08:11:10;;;;;;;5.57;3.13;;;18.00;25.90;20.40;94453.00;;;;10354716;28;46468;-61
2022/03/10 08:16:11;;;;;;;6.68;3.45;;;18.00;26.40;20.40;94449.00;;;;10353093;28;48301;-61
2022/03/10 08:21:11;;;;;;;5.78;3.10;;;18.00;25.80;20.50;94457.00;;;;10352767;28;47034;-62
2022/03/10 08:26:13;;;;;;;6.57;3.50;;;18.00;25.80;20.40;94440.00;;;;10354115;28;46491;-61
2022/03/10 08:31:13;;;;;;;5.78;3.45;;;18.00;25.70;20.40;94445.00;;;;10352419;28;47172;-61
2022/03/10 08:36:14;;;;;;;7.82;3.22;;;18.00;25.80;20.50;94433.00;;;;10356327;28;47357;-64
2022/03/10 08:41:15;;;;;;;8.18;3.45;;;18.00;26.40;20.60;94438.00;;;;10392594;28;45274;-66
2022/03/10 08:46:16;;;;;;;10.70;5.00;;;18.20;26.40;20.50;94421.00;;;;10410312;28;46364;-70
2022/03/10 08:51:18;;;;;;;9.10;4.90;;;18.00;26.20;20.60;94442.00;;;;10364346;28;48250;-68
2022/03/10 08:56:22;;;;;;;8.52;4.55;;;18.10;26.40;20.60;94439.00;;;;10373230;28;46386;-68
2022/03/10 09:01:22;;;;;;;8.80;3.95;;;18.20;26.20;20.70;94433.00;;;;10358639;28;47345;-60
2022/03/10 09:06:23;;;;;;;9.48;4.32;;;18.20;26.50;20.70;94436.00;;;;10375004;28;46316;-61
2022/03/10 09:11:24;;;;;;;6.80;4.00;;;18.20;26.30;20.70;94429.00;;;;10355358;28;45377;-60
2022/03/10 09:16:25;;;;;;;5.53;3.35;;;18.10;26.40;20.70;94425.00;;;;10370178;28;45288;-62
2022/03/10 09:21:26;;;;;;;8.02;3.83;;;18.20;26.30;20.70;94422.00;;;;10372501;28;45813;-60
2022/03/10 09:26:27;;;;;;;6.63;3.53;;;18.20;26.20;20.70;94404.00;;;;10374385;28;46046;-61
2022/03/10 09:31:27;;;;;;;5.53;3.60;;;18.20;26.10;20.70;94418.00;;;;10358800;28;45278;-60
2022/03/10 09:36:28;;;;;;;5.00;3.20;;;18.20;26.10;20.70;94404.00;;;;10374358;28;45433;-60
2022/03/10 09:41:29;;;;;;;5.38;3.17;;;18.20;26.00;20.70;94409.00;;;;10358834;28;45393;-60
2022/03/10 09:46:30;;;;;;;5.05;3.28;;;18.20;26.00;20.70;94407.00;;;;10372741;28;45507;-61
2022/03/10 09:51:32;;;;;;;5.55;3.22;;;18.20;25.90;20.70;94414.00;;;;10374413;28;45304;-60
2022/03/10 09:56:36;;;;;;;6.30;3.47;;;18.20;25.90;20.70;94403.00;;;;10373813;28;46696;-60
2022/03/10 10:01:36;;;;;;;6.18;3.42;;;18.20;25.90;20.70;94410.00;;;;10374793;28;45269;-61
2022/03/10 10:07:05;;;;;;;6.05;3.17;;;18.20;25.90;20.70;94407.00;;;;10341709;28;46271;-61
2022/03/10 10:12:08;;;;;;;4.68;2.97;;;18.20;25.80;20.70;94408.00;;;;10330198;28;45523;-61
2022/03/10 10:17:09;;;;;;;6.57;3.53;;;18.20;25.90;20.70;94405.00;;;;10326079;28;45554;-61
2022/03/10 10:22:19;;;;;;;6.18;3.38;;;18.20;25.90;20.70;94401.00;;;;10317032;28;45684;-60
2022/03/10 10:27:32;;;;;;;5.28;3.42;;;18.20;25.90;20.70;94398.00;;;;10325289;28;46511;-60
2022/03/10 10:32:44;;;;;;;8.13;3.20;;;18.20;25.90;20.70;94372.00;;;;10347255;28;48037;-61
2022/03/10 10:37:48;;;;;;;5.57;3.65;;;18.20;25.90;20.70;94368.00;;;;10356350;28;45475;-61
2022/03/10 10:42:49;;;;;;;6.50;3.92;;;18.20;25.90;20.70;94379.00;;;;10356448;28;45251;-60
2022/03/10 10:48:12;;;;;;;7.25;4.50;;;18.20;25.70;20.70;94370.00;;;;10355027;28;46233;-60
2022/03/10 10:53:31;;;;;;;6.03;3.83;;;18.20;25.60;20.70;94351.00;;;;10353407;28;46150;-66
2022/03/10 10:58:32;;;;;;;6.45;3.60;;;18.30;25.80;20.80;94351.00;;;;10372036;28;45190;-64
2022/03/10 11:03:36;;;;;;;7.38;3.53;;;18.30;25.70;20.80;94355.00;;;;10372098;28;45677;-64
2022/03/10 11:08:37;;;;;;;6.13;3.45;;;18.30;26.00;20.80;94340.00;;;;10370450;28;45589;-64
2022/03/10 11:13:38;;;;;;;5.88;3.47;;;18.40;26.60;20.90;94335.00;;;;10372022;28;45291;-67
2022/03/10 11:18:41;;;;;;;6.15;3.42;;;18.40;26.60;20.90;94329.00;;;;10354445;28;47376;-64
2022/03/10 11:23:59;;;;;;;5.95;3.45;;;18.40;26.70;20.90;94305.00;;;;10377136;28;45450;-68
2022/03/10 11:29:01;;;;;;;5.25;3.10;;;18.50;26.70;21.00;94308.00;;;;10353646;28;48317;-64
2022/03/10 11:34:03;;;;;;;6.32;3.67;;;18.60;26.70;20.90;94317.00;;;;10367200;28;46596;-64
2022/03/10 11:39:06;;;;;;;6.93;4.05;;;18.50;26.30;20.90;94302.00;;;;10352035;28;46461;-64
2022/03/10 11:44:08;;;;;;;6.45;3.85;;;18.40;26.00;20.90;94303.00;;;;10365641;28;46968;-64
2022/03/10 11:49:15;;;;;;;5.15;3.38;;;18.40;25.60;20.80;94286.00;;;;10367982;28;45164;-64
2022/03/10 11:54:28;;;;;;;5.40;3.42;;;18.30;25.80;20.90;94286.00;;;;10370008;28;45544;-65
2022/03/10 11:59:32;;;;;;;5.15;3.00;;;18.40;25.80;20.90;94289.00;;;;10353442;28;46934;-64
2022/03/10 12:04:41;;;;;;;4.60;2.92;;;18.40;25.80;20.90;94283.00;;;;10370299;28;47087;-64
2022/03/10 12:09:42;;;;;;;4.63;2.88;;;18.40;25.80;20.90;94268.00;;;;10369849;28;46123;-64
2022/03/10 12:14:44;;;;;;;5.10;2.83;;;18.40;25.90;20.90;94277.00;;;;10370150;28;46498;-64
2022/03/10 12:20:16;;;;;;;3.90;2.70;;;18.40;25.90;21.00;94266.00;;;;10369297;28;47180;-64
2022/03/10 12:25:22;;;;;;;3.38;2.35;;;18.40;26.00;21.00;94258.00;;;;10369721;28;46275;-64
2022/03/10 12:30:28;;;;;;;4.95;2.38;;;18.50;26.20;21.00;94253.00;;;;10367611;28;45609;-65
2022/03/10 12:35:36;;;;;;;5.55;2.63;;;18.50;26.30;21.00;94255.00;;;;10367799;28;46434;-64
2022/03/10 12:40:39;;;;;;;3.85;2.50;;;18.50;26.30;21.00;94260.00;;;;10406230;28;48299;-65
2022/03/10 12:45:46;;;;;;;3.58;2.47;;;18.50;26.20;21.00;94249.00;;;;10409615;28;45235;-64
2022/03/10 12:50:47;;;;;;;3.22;2.25;;;18.50;26.20;21.00;94243.00;;;;10393080;28;47723;-64
2022/03/10 12:55:57;;;;;;;3.45;2.22;;;18.50;26.10;21.00;94236.00;;;;10392909;28;48309;-65
2022/03/10 13:01:06;;;;;;;4.32;2.67;;;18.50;26.00;21.00;94237.00;;;;10392878;28;47424;-64
2022/03/10 13:06:12;;;;;;;4.20;2.40;;;18.50;26.00;21.00;94237.00;;;;10409576;28;45307;-64
2022/03/10 13:11:26;;;;;;;3.42;2.20;;;18.50;26.00;21.00;94226.00;;;;10394009;28;46300;-64
2022/03/10 13:16:40;;;;;;;4.53;2.40;;;18.50;26.00;21.00;94225.00;;;;10392467;28;48441;-64
2022/03/10 13:21:57;;;;;;;3.15;2.22;;;18.50;25.90;21.00;94214.00;;;;10375891;28;47478;-64
2022/03/10 13:27:05;;;;;;;3.60;2.45;;;18.50;25.90;21.10;94200.00;;;;10393382;28;45324;-64
2022/03/10 13:32:07;;;;;;;4.53;2.28;;;18.60;25.90;21.10;94217.00;;;;10409047;28;45563;-64
2022/03/10 13:37:09;;;;;;;2.70;2.03;;;18.50;25.90;21.10;94212.00;;;;10408459;28;45289;-64
2022/03/10 13:42:12;;;;;;;3.05;1.90;;;18.60;26.00;21.10;94217.00;;;;10411623;28;45442;-60
2022/03/10 13:47:13;;;;;;;3.20;2.15;;;18.60;26.10;21.10;94206.00;;;;10398616;28;46392;-61
2022/03/10 13:52:16;;;;;;;2.90;1.83;;;18.60;26.00;21.10;94207.00;;;;10398279;28;47156;-62
2022/03/10 13:57:21;;;;;;;2.72;1.85;;;18.60;25.90;21.10;94201.00;;;;10415219;28;45259;-61
2022/03/10 14:02:26;;;;;;;2.30;1.60;;;18.60;25.80;21.10;94202.00;;;;10415184;28;45261;-60
2022/03/10 14:07:28;;;;;;;3.80;2.28;;;18.60;25.80;21.10;94187.00;;;;10386535;28;45678;-60
2022/03/10 14:12:31;;;;;;;4.85;2.03;;;18.60;25.70;21.10;94172.00;;;;10340356;28;47120;-60
2022/03/10 14:17:44;;;;;;;3.88;2.05;;;18.60;25.70;21.10;94177.00;;;;10356437;23;46032;-63
2022/03/10 14:22:45;;;;;;;3.25;1.73;;;18.60;25.60;21.10;94173.00;;;;10331330;28;45358;-64
2022/03/10 14:27:47;;;;;;;2.28;1.75;;;18.60;25.60;21.10;94181.00;;;;10315185;28;47140;-63
2022/03/10 14:32:47;;;;;;;3.20;2.00;;;18.50;25.70;21.00;94169.00;;;;10299629;28;47001;-63
2022/03/10 14:37:48;;;;;;;4.18;2.25;;;18.60;25.60;21.00;94148.00;;;;10315448;28;45207;-63
2022/03/10 14:42:49;;;;;;;2.92;1.70;;;18.50;25.60;21.00;94152.00;;;;10316706;28;46539;-63
2022/03/10 14:47:49;;;;;;;2.90;1.95;;;18.50;25.70;21.00;94142.00;;;;10314944;28;45530;-62
2022/03/10 14:52:51;;;;;;;3.08;1.70;;;18.50;25.60;21.00;94148.00;;;;10314585;28;45320;-63
2022/03/10 14:57:52;;;;;;;2.45;1.52;;;18.60;25.40;21.00;94146.00;;;;10314555;28;46245;-63
2022/03/10 15:02:52;;;;;;;2.70;1.70;;;18.60;25.60;21.10;94133.00;;;;10314376;28;45576;-63
2022/03/10 15:07:54;;;;;;;2.70;1.50;;;18.50;25.60;21.10;94124.00;;;;10315407;28;45389;-63
2022/03/10 15:12:55;;;;;;;2.22;1.30;;;18.60;25.60;21.10;94123.00;;;;10314118;28;46224;-63
2022/03/10 15:17:56;;;;;;;2.63;1.40;;;18.60;25.70;21.10;94116.00;;;;10314748;28;45173;-63
2022/03/10 15:22:58;;;;;;;3.28;1.40;;;18.60;25.80;21.10;94115.00;;;;10312530;28;47138;-64
2022/03/10 15:28:02;;;;;;;3.13;1.80;;;18.60;25.80;21.10;94098.00;;;;10296822;28;48114;-63
2022/03/10 15:33:03;;;;;;;3.70;1.77;;;18.60;25.30;21.00;94105.00;;;;10328515;28;47622;-62
2022/03/10 15:38:04;;;;;;;4.50;2.15;;;18.60;25.20;21.10;94104.00;;;;10322373;28;47023;-63
2022/03/10 15:43:05;;;;;;;3.35;1.83;;;18.60;24.80;21.00;94098.00;;;;10314138;28;45498;-63
2022/03/10 15:48:06;;;;;;;3.80;2.00;;;18.50;24.70;21.10;94099.00;;;;10313004;28;45343;-63
2022/03/10 15:53:07;;;;;;;3.35;1.90;;;18.60;25.10;21.10;94110.00;;;;10310468;28;45189;-63
2022/03/10 15:58:11;;;;;;;5.45;1.65;;;18.60;24.80;21.10;94101.00;;;;10312190;28;45628;-63
2022/03/10 16:03:11;;;;;;;7.72;2.38;;;18.60;24.90;21.10;94095.00;;;;10309465;28;45323;-63
2022/03/10 16:08:12;;;;;;;6.90;1.88;;;18.60;24.90;21.10;94096.00;;;;10308685;28;45506;-64
2022/03/10 16:13:13;;;;;;;8.35;1.90;;;18.60;24.90;21.20;94095.00;;;;10309786;28;45217;-64
2022/03/10 16:18:13;;;;;;;18.95;2.15;;;18.70;24.80;21.20;94089.00;;;;10307112;28;48182;-63
2022/03/10 16:23:15;;;;;;;14.55;2.55;;;18.70;25.30;21.20;94085.00;;;;10308989;28;45268;-63
2022/03/10 16:28:16;;;;;;;15.30;2.25;;;18.70;24.60;21.20;94090.00;;;;10311669;28;45167;-63
2022/03/10 16:33:16;;;;;;;7.47;1.85;;;18.70;24.60;21.20;94089.00;;;;10319778;28;45220;-64
2022/03/10 16:38:18;;;;;;;9.50;2.20;;;18.70;24.50;21.20;94083.00;;;;10311296;28;48368;-63
2022/03/10 16:43:19;;;;;;;9.88;2.20;;;18.60;24.60;21.10;94086.00;;;;10311652;28;45262;-63
2022/03/10 16:48:19;;;;;;;11.05;2.45;;;18.60;24.50;21.10;94106.00;;;;10294743;28;46971;-63
2022/03/10 16:53:20;;;;;;;9.88;2.13;;;18.60;24.60;21.10;94081.00;;;;10312565;28;45457;-63
2022/03/10 16:58:20;;;;;;;11.00;1.90;;;18.60;24.60;21.10;94102.00;;;;10310119;28;45660;-63
2022/03/10 17:03:22;;;;;;;8.20;1.88;;;18.60;24.50;21.10;94094.00;;;;10310314;28;45288;-63
2022/03/10 17:08:24;;;;;;;9.40;2.17;;;18.60;24.60;21.00;94096.00;;;;10311030;28;45460;-63
2022/03/10 17:13:25;;;;;;;13.70;3.42;;;18.60;24.70;21.00;94097.00;;;;10311043;28;45337;-63
2022/03/10 17:18:26;;;;;;;12.00;2.80;;;18.50;24.50;21.00;94093.00;;;;10299329;28;47252;-63
2022/03/10 17:23:26;;;;;;;13.57;2.65;;;18.50;24.70;21.00;94089.00;;;;10317569;28;45979;-63
2022/03/10 17:28:27;;;;;;;19.85;3.70;;;18.50;24.90;21.00;94090.00;;;;10318559;28;45156;-63
2022/03/10 17:33:28;;;;;;;12.30;2.90;;;18.40;24.90;21.10;94083.00;;;;10300730;28;48181;-63
2022/03/10 17:38:28;;;;;;;13.98;2.92;;;18.60;25.00;21.10;94081.00;;;;10316895;28;47207;-64
2022/03/10 17:43:29;;;;;;;13.70;3.08;;;18.60;24.90;21.10;94081.00;;;;10316918;28;45233;-64
2022/03/10 17:48:30;;;;;;;18.02;3.78;;;18.60;25.00;21.20;94097.00;;;;10316493;28;45270;-64
2022/03/10 17:53:34;;;;;;;11.20;2.53;;;18.70;25.00;21.20;94103.00;;;;10316962;28;45289;-63
2022/03/10 17:58:35;;;;;;;16.05;3.00;;;18.70;25.00;21.10;94105.00;;;;10300010;28;47408;-63
2022/03/10 18:03:35;;;;;;;9.35;3.58;;;18.60;24.60;21.00;94085.00;;;;10299945;28;47269;-63
2022/03/10 18:08:36;;;;;;;6.25;3.17;;;18.40;24.20;20.90;94101.00;;;;10299581;28;48206;-63
2022/03/10 18:13:36;;;;;;;9.45;3.67;;;18.40;24.20;20.90;94103.00;;;;10316326;28;46721;-64
2022/03/10 18:18:39;;;;;;;10.50;3.05;;;18.40;24.20;20.90;94096.00;;;;10316796;28;45625;-63
2022/03/10 18:23:39;;;;;;;11.63;3.53;;;18.30;24.00;20.80;94099.00;;;;10317156;28;46591;-63
2022/03/10 18:28:42;;;;;;;13.35;3.10;;;18.30;24.40;20.80;94087.00;;;;10314387;28;46513;-63
2022/03/10 18:33:44;;;;;;;10.40;3.25;;;18.30;24.60;20.90;94089.00;;;;10299458;28;47090;-63
2022/03/10 18:38:44;;;;;;;7.35;2.92;;;18.30;24.70;20.90;94076.00;;;;10298622;28;47243;-63
2022/03/10 18:43:45;;;;;;;7.55;2.83;;;18.40;24.90;20.90;94080.00;;;;10315674;28;45272;-63
2022/03/10 18:48:46;;;;;;;10.48;2.65;;;18.40;25.00;20.90;94084.00;;;;10315159;28;45459;-62
2022/03/10 18:53:47;;;;;;;7.95;2.90;;;18.40;24.70;20.90;94087.00;;;;10309902;28;45718;-63
2022/03/10 18:58:48;;;;;;;12.23;3.13;;;18.40;24.60;20.90;94076.00;;;;10312692;28;47923;-63
2022/03/10 19:03:49;;;;;;;10.63;3.17;;;18.30;24.60;20.90;94089.00;;;;10315558;28;45542;-63
2022/03/10 19:08:50;;;;;;;9.52;2.70;;;18.40;25.00;20.90;94068.00;;;;10314620;28;46576;-62
2022/03/10 19:13:51;;;;;;;4.78;2.42;;;18.40;25.00;20.90;94079.00;;;;10313519;28;46649;-62
2022/03/10 19:18:52;;;;;;;4.35;2.38;;;18.40;24.80;20.90;94062.00;;;;10312990;28;45477;-63
2022/03/10 19:23:52;;;;;;;7.10;2.65;;;18.40;24.90;20.90;94069.00;;;;10313510;28;45513;-63
2022/03/10 19:28:53;;;;;;;4.30;2.20;;;18.40;25.10;20.90;94071.00;;;;10313479;28;45234;-63
2022/03/10 19:33:54;;;;;;;6.82;2.17;;;18.40;25.00;20.90;94070.00;;;;10297356;28;46813;-63
2022/03/10 19:38:54;;;;;;;4.35;2.05;;;18.40;25.10;20.90;94079.00;;;;10313895;28;45197;-63
2022/03/10 19:43:55;;;;;;;4.53;1.52;;;18.40;25.00;20.90;94070.00;;;;10312341;28;45181;-62
2022/03/10 19:48:56;;;;;;;3.15;1.70;;;18.40;24.90;20.90;94068.00;;;;10294536;28;46901;-63
2022/03/10 19:53:58;;;;;;;3.67;1.73;;;18.40;24.90;20.90;94070.00;;;;10311965;28;47183;-62
2022/03/10 19:58:58;;;;;;;2.47;1.70;;;18.40;25.00;20.90;94064.00;;;;10311929;28;46303;-63
2022/03/10 20:03:59;;;;;;;2.78;1.67;;;18.40;25.10;20.90;94062.00;;;;10311796;28;45526;-63
2022/03/10 20:09:00;;;;;;;3.10;1.52;;;18.40;25.10;20.90;94060.00;;;;10312707;28;46747;-63
2022/03/10 20:14:01;;;;;;;3.13;1.50;;;18.40;25.20;20.90;94060.00;;;;10312882;28;45285;-62
2022/03/10 20:19:03;;;;;;;2.80;1.60;;;18.40;25.20;20.90;94063.00;;;;10332711;23;48390;-60
2022/03/10 20:24:06;;;;;;;1.70;1.20;;;18.50;25.00;20.90;94062.00;;;;10327389;28;45190;-60
2022/03/10 20:29:06;;;;;;;5.85;1.50;;;18.40;25.10;20.90;94066.00;;;;10263696;28;46894;-62
2022/03/10 20:34:07;;;;;;;2.30;1.50;;;18.40;25.20;20.90;94067.00;;;;10272896;28;45302;-59
2022/03/10 20:39:08;;;;;;;2.25;1.40;;;18.40;25.00;20.90;94057.00;;;;10272548;28;46550;-60
2022/03/10 20:44:10;;;;;;;2.20;1.67;;;18.40;25.20;20.90;94066.00;;;;10272919;28;45455;-59
2022/03/10 20:49:12;;;;;;;1.77;1.35;;;18.40;25.20;20.90;94058.00;;;;10270189;28;48022;-61
2022/03/10 20:54:13;;;;;;;3.33;1.40;;;18.40;25.20;20.90;94052.00;;;;10261813;28;48266;-59
2022/03/10 20:59:13;;;;;;;2.03;1.23;;;18.40;25.20;20.90;94053.00;;;;10278078;28;45203;-60
2022/03/10 21:04:14;;;;;;;1.75;1.08;;;18.40;25.20;20.90;94056.00;;;;10278226;28;45154;-60
2022/03/10 21:09:15;;;;;;;2.33;1.50;;;18.40;25.30;20.90;94050.00;;;;10261149;28;46973;-60
2022/03/10 21:14:16;;;;;;;1.83;1.30;;;18.40;25.30;20.90;94045.00;;;;10261519;28;47517;-60
2022/03/10 21:19:17;;;;;;;3.70;1.30;;;18.40;25.30;20.90;94055.00;;;;10276365;28;46368;-59
2022/03/10 21:24:19;;;;;;;1.83;1.38;;;18.40;25.30;20.90;94048.00;;;;10277039;28;45343;-61
2022/03/10 21:29:19;;;;;;;2.47;1.40;;;18.40;25.30;20.90;94049.00;;;;10276770;28;45463;-59
2022/03/10 21:34:20;;;;;;;2.95;1.58;;;18.40;25.20;20.90;94041.00;;;;10253551;28;46534;-59
2022/03/10 21:39:22;;;;;;;2.40;1.65;;;18.40;25.30;20.80;94032.00;;;;10259175;28;45177;-60
2022/03/10 21:44:23;;;;;;;3.53;1.50;;;18.30;25.40;20.80;94022.00;;;;10253370;28;45673;-60
2022/03/10 21:49:23;;;;;;;1.60;1.30;;;18.30;25.30;20.80;94032.00;;;;10223943;28;47194;-60
2022/03/10 21:54:24;;;;;;;1.85;1.20;;;18.30;25.40;20.80;94033.00;;;;10267742;28;45357;-59
2022/03/10 21:59:25;;;;;;;1.88;1.40;;;18.30;25.30;20.70;94024.00;;;;10258710;28;48161;-59
2022/03/10 22:04:26;;;;;;;1.35;1.13;;;18.20;25.30;20.70;94022.00;;;;10275643;28;45565;-60
2022/03/10 22:09:27;;;;;;;1.77;1.33;;;18.20;25.20;20.70;94019.00;;;;10258911;28;47055;-59
2022/03/10 22:14:28;;;;;;;2.20;1.38;;;18.20;25.30;20.70;94021.00;;;;10276761;28;46383;-63
2022/03/10 22:19:28;;;;;;;2.33;1.50;;;18.20;25.30;20.70;94014.00;;;;10275581;28;45292;-60